Wetterdaten: aktuell Mittwoch, 18.09.2019 22:05
Datum Zeit Temp. I. Temp. A. Temp -20 Schuppen Feuchte I. Feuchte A. Feucht -20 Luftdruck Regen Wind Richtung Richtung Sonnenschein ET Solar Taupunkt Windchill Windben Empfang
18.09.2019 22:05 21,3 C 7,9 C 16,7 C 16,7 C 62 % 70 % 28 cb 1024,1 hPa 0,0 l/m 0,0 km/h (0 Bft) N 0 0 min 0,001 mm 0 W/m 2,8 C 7,9 C 0,0 km/h (0 Bft) 100,00 %
18.09.2019 21:05 21,6 C 9,3 C 17,2 C 17,8 C 61 % 64 % 28 cb 1023,9 hPa 0,0 l/m 0,0 km/h (0 Bft) SW 229 0 min 0,025 mm 0 W/m 2,8 C 9,3 C 0,0 km/h (0 Bft) 100,00 %
18.09.2019 20:05 22,1 C 11,4 C 17,2 C 18,3 C 60 % 55 % 27 cb 1023,0 hPa 0,0 l/m 0,0 km/h (0 Bft) SW 229 0 min 0,025 mm 0 W/m 2,7 C 11,4 C 0,0 km/h (0 Bft) 99,12 %
18.09.2019 19:05 23,2 C 14,7 C 17,2 C 19,4 C 58 % 45 % 27 cb 1022,2 hPa 0,0 l/m 0,0 km/h (0 Bft) SW 229 0 min 0,025 mm 0 W/m 2,9 C 14,7 C 0,0 km/h (0 Bft) 98,26 %
18.09.2019 18:05 26,7 C 16,6 C 16,7 C 20,0 C 53 % 37 % 27 cb 1021,9 hPa 0,0 l/m 1,6 km/h (1 Bft) SW 225 60 min 0,127 mm 97 W/m 1,9 C 16,6 C 8,0 km/h (2 Bft) 100,00 %
18.09.2019 17:05 31,1 C 17,6 C 16,7 C 18,9 C 49 % 35 % 27 cb 1022,0 hPa 0,0 l/m 3,7 km/h (1 Bft) W-SW 257 60 min 0,229 mm 276 W/m 2,0 C 17,6 C 11,3 km/h (2 Bft) 100,00 %
18.09.2019 16:05 29,9 C 18,2 C 16,1 C 17,8 C 50 % 34 % 27 cb 1022,2 hPa 0,0 l/m 1,9 km/h (1 Bft) W-NW 295 60 min 0,304 mm 425 W/m 2,1 C 18,2 C 11,3 km/h (2 Bft) 100,00 %
18.09.2019 15:05 25,6 C 18,3 C 16,1 C 16,1 C 55 % 34 % 27 cb 1022,4 hPa 0,0 l/m 3,7 km/h (1 Bft) SW 227 60 min 0,356 mm 547 W/m 2,2 C 18,3 C 14,5 km/h (3 Bft) 98,35 %
18.09.2019 14:05 23,8 C 17,9 C 15,6 C 15,0 C 59 % 36 % 27 cb 1022,7 hPa 0,0 l/m 5,4 km/h (1 Bft) N-NO 32 60 min 0,381 mm 629 W/m 2,6 C 17,9 C 16,1 km/h (3 Bft) 97,50 %
18.09.2019 13:05 22,3 C 17,0 C 15,6 C 15,0 C 62 % 38 % 27 cb 1023,1 hPa 0,0 l/m 3,4 km/h (1 Bft) W-SW 258 60 min 0,381 mm 671 W/m 2,6 C 17,0 C 14,5 km/h (3 Bft) 96,43 %
18.09.2019 12:05 22,0 C 16,0 C 16,1 C 14,4 C 62 % 46 % 27 cb 1023,4 hPa 0,0 l/m 2,7 km/h (1 Bft) NW 304 60 min 0,356 mm 656 W/m 4,4 C 16,0 C 12,9 km/h (3 Bft) 97,44 %
18.09.2019 11:05 21,8 C 15,2 C 16,1 C 13,9 C 62 % 49 % 27 cb 1023,7 hPa 0,0 l/m 3,7 km/h (1 Bft) W-SW 248 60 min 0,279 mm 584 W/m 4,6 C 15,2 C 11,3 km/h (2 Bft) 97,50 %
18.09.2019 10:05 21,5 C 13,1 C 16,1 C 13,9 C 63 % 54 % 27 cb 1023,8 hPa 0,0 l/m 4,0 km/h (1 Bft) W 281 30 min 0,152 mm 475 W/m 4,0 C 13,1 C 16,1 km/h (3 Bft) 100,00 %
18.09.2019 09:05 21,3 C 11,6 C 16,1 C 14,4 C 63 % 66 % 27 cb 1023,1 hPa 0,0 l/m 1,8 km/h (1 Bft) SW 227 0 min 0,026 mm 40 W/m 5,5 C 11,6 C 12,9 km/h (3 Bft) 100,00 %
18.09.2019 08:05 21,2 C 9,9 C 16,1 C 14,4 C 63 % 72 % 27 cb 1022,6 hPa 0,0 l/m 0,7 km/h (0 Bft) W 262 0 min 0,025 mm 25 W/m 5,1 C 9,9 C 4,8 km/h (1 Bft) 97,37 %
18.09.2019 07:05 21,1 C 9,6 C 16,7 C 15,0 C 64 % 74 % 28 cb 1021,8 hPa 0,0 l/m 2,4 km/h (1 Bft) NW 304 0 min 0,000 mm 11 W/m 5,2 C 9,6 C 8,0 km/h (2 Bft) 100,00 %
18.09.2019 06:05 21,2 C 9,7 C 16,7 C 15,6 C 63 % 72 % 27 cb 1020,9 hPa 0,0 l/m 1,1 km/h (1 Bft) W-SW 253 0 min 0,026 mm 0 W/m 4,9 C 9,7 C 4,8 km/h (1 Bft) 99,15 %
18.09.2019 05:05 21,2 C 10,6 C 16,7 C 16,1 C 63 % 67 % 27 cb 1020,4 hPa 0,0 l/m 0,5 km/h (0 Bft) W-NW 303 0 min 0,025 mm 0 W/m 4,7 C 10,6 C 4,8 km/h (1 Bft) 97,44 %
18.09.2019 04:05 21,4 C 11,9 C 17,2 C 16,1 C 63 % 61 % 28 cb 1019,7 hPa 0,0 l/m 0,8 km/h (0 Bft) W 265 0 min 0,051 mm 0 W/m 4,6 C 11,9 C 6,4 km/h (2 Bft) 98,99 %
18.09.2019 03:05 21,5 C 13,3 C 17,2 C 16,7 C 63 % 57 % 27 cb 1019,2 hPa 0,0 l/m 7,1 km/h (2 Bft) S-SW 208 0 min 0,025 mm 0 W/m 5,0 C 13,3 C 22,5 km/h (4 Bft) 100,00 %
18.09.2019 02:05 21,6 C 14,4 C 17,2 C 17,2 C 63 % 65 % 27 cb 1018,4 hPa 0,0 l/m 0,8 km/h (0 Bft) SW 232 0 min 0,026 mm 0 W/m 7,9 C 14,4 C 4,8 km/h (1 Bft) 100,00 %
18.09.2019 01:05 21,7 C 14,7 C 17,2 C 17,2 C 63 % 70 % 27 cb 1017,6 hPa 0,0 l/m 2,0 km/h (1 Bft) SW 234 0 min 0,025 mm 0 W/m 9,3 C 14,7 C 8,0 km/h (2 Bft) 97,46 %
18.09.2019 00:05 21,8 C 14,3 C 17,8 C 17,8 C 62 % 75 % 27 cb 1016,8 hPa 0,0 l/m 0,2 km/h (0 Bft) W-SW 246 0 min 0,000 mm 0 W/m 9,9 C 14,3 C 3,2 km/h (1 Bft) 98,15 %
17.09.2019 23:05 21,9 C 15,2 C 17,8 C 18,3 C 62 % 74 % 27 cb 1016,3 hPa 0,0 l/m 0,1 km/h (0 Bft) W 269 0 min 0,025 mm 0 W/m 10,6 C 15,2 C 3,2 km/h (1 Bft) 100,00 %
17.09.2019 23:00 21,9 C 15,2 C 17,8 C 18,3 C 62 % 74 % 27 cb 1016,2 hPa 0,0 l/m 1,3 km/h (1 Bft) W 269 0 min 0,025 mm 0 W/m 10,6 C 15,2 C 11,3 km/h (2 Bft) 100,00 %
_ Min-Zeit 07:30 22:05 14:45 11:30 17:35 16:45 16:55 23:00 - 22:05 - - - - - 16:45 22:05 22:05 21:55
Minimum _ 21,1 C 7,9 C 15,6 C 13,9 C 49 % 33 % 26 cb 1016,2 hPa - 0,0 km/h (0 Bft) - - - - - 1,4 C 7,9 C 0,0 km/h (0 Bft) 81,08 %
_ Max-Zeit 17:05 15:35 00:45 18:45 07:35 00:20 22:05 22:05 22:05 03:10 - - 18:05 14:00 12:40 23:05 15:35 03:05 22:05
Maximum _ 31,1 C 18,6 C 17,8 C 20,0 C 64 % 75 % 28 cb 1024,1 hPa 0,0 l/m 8,5 km/h
W (2 Bft)
- - 5 min 0,381 mm 680 W/m 10,6 C 18,6 C 22,5 km/h
SW (4 Bft)
100,00 %
Durchschnitt _ 22,8 C 13,9 C 16,7 C 16,6 C 60 % 57 % 27 cb 1021,1 hPa #0,0 l/m 1,8 km/h (1 Bft) W-SW - #8:30 h #2,845 mm 360 W/m 5,0 C 13,9 C 8,1 km/h (2 Bft) 99,02 %